createdAt,value
2019-04-19T05:18:12.354Z,7.07
2019-04-19T05:23:11.039Z,10.37
2019-04-19T05:28:16.677Z,10.70
2019-04-19T05:33:15.502Z,8.80
2019-04-19T05:38:52.071Z,12.27
2019-04-19T05:44:15.285Z,10.63
2019-04-19T05:49:11.306Z,11.63
2019-04-19T05:54:06.415Z,12.77
2019-04-19T05:59:12.926Z,10.87
2019-04-19T06:04:29.007Z,20.27
2019-04-19T06:09:15.871Z,12.60
2019-04-19T06:14:45.334Z,13.27
2019-04-19T06:19:40.094Z,17.40
2019-04-19T06:24:50.492Z,14.30
2019-04-19T06:30:03.637Z,13.07
2019-04-19T06:34:53.965Z,13.23
2019-04-19T06:39:49.684Z,12.83
2019-04-19T06:45:13.406Z,16.20
2019-04-19T06:49:57.788Z,13.63
2019-04-19T06:55:10.092Z,16.30
2019-04-19T07:00:19.915Z,11.43
2019-04-19T07:05:27.722Z,14.50
2019-04-19T07:15:52.175Z,17.50
2019-04-19T07:20:53.181Z,13.30
2019-04-19T07:25:59.566Z,11.50
2019-04-19T07:30:48.202Z,26.77
2019-04-19T07:36:07.802Z,15.23
2019-04-19T07:41:14.648Z,13.97
2019-04-19T07:46:21.003Z,17.40
2019-04-19T07:51:12.922Z,16.80
2019-04-19T07:56:21.924Z,16.93
2019-04-19T08:01:54.169Z,13.57
2019-04-19T08:31:58.231Z,15.50
2019-04-19T08:37:05.145Z,14.77
2019-04-19T08:42:24.652Z,16.53
2019-04-19T08:47:31.152Z,17.73
2019-04-19T08:52:30.482Z,14.23
2019-04-19T08:57:34.240Z,17.77
2019-04-19T09:02:49.662Z,16.77
2019-04-19T09:07:59.730Z,15.70
2019-04-19T09:13:18.428Z,15.77
2019-04-19T09:23:14.371Z,15.47
2019-04-19T09:28:39.036Z,14.63
2019-04-19T09:33:19.689Z,16.40
2019-04-19T09:38:28.630Z,17.00
2019-04-19T09:43:34.394Z,17.00
2019-04-19T09:48:46.175Z,21.20
2019-04-19T09:53:53.894Z,18.47
2019-04-19T09:58:51.335Z,18.67
2019-04-19T10:03:47.860Z,18.10
2019-04-19T10:08:49.643Z,21.30
2019-04-19T10:13:53.603Z,19.80
2019-04-19T10:19:01.741Z,16.87
2019-04-19T10:24:08.004Z,19.83
2019-04-19T10:29:19.865Z,16.50
2019-04-19T10:34:14.385Z,18.83
2019-04-19T10:39:23.696Z,19.43
2019-04-19T10:44:27.421Z,16.73
2019-04-19T10:49:38.942Z,19.00
2019-04-19T10:54:36.531Z,21.97
2019-04-19T10:59:40.535Z,17.43
2019-04-19T11:04:47.350Z,17.23
2019-04-19T11:09:51.475Z,16.10
2019-04-19T11:14:55.240Z,14.60
2019-04-19T11:20:14.553Z,16.63
2019-04-19T11:25:06.420Z,14.40
2019-04-19T11:30:12.992Z,21.17
2019-04-19T11:35:19.246Z,17.80
2019-04-19T11:40:23.112Z,17.70
2019-04-19T11:45:28.303Z,13.10
2019-04-19T11:50:35.862Z,17.83
2019-04-19T11:55:42.349Z,14.63
2019-04-19T12:00:48.165Z,14.07
2019-04-19T12:05:51.935Z,12.73
2019-04-19T12:10:56.658Z,10.80
2019-04-19T12:16:01.107Z,9.43
2019-04-19T12:21:05.127Z,9.37
2019-04-19T12:26:09.339Z,12.30
2019-04-19T12:31:13.600Z,10.37
2019-04-19T12:36:17.619Z,9.60
2019-04-19T12:41:22.155Z,8.40
2019-04-19T12:46:26.258Z,8.33
2019-04-19T12:51:30.152Z,9.10
2019-04-19T12:56:33.988Z,9.53
2019-04-19T13:01:45.990Z,8.17
2019-04-19T13:06:54.628Z,10.77
2019-04-19T13:11:58.964Z,8.53
2019-04-19T13:17:02.663Z,11.10
2019-04-19T13:22:06.268Z,9.40
2019-04-19T13:27:09.948Z,8.27
2019-04-19T13:32:13.694Z,9.10
2019-04-19T13:37:19.005Z,8.37
2019-04-19T13:42:24.564Z,9.50
2019-04-19T13:47:28.816Z,8.30
2019-04-19T13:52:32.623Z,9.77
2019-04-19T13:57:37.688Z,8.50
2019-04-19T14:02:41.435Z,8.00
2019-04-19T14:07:45.334Z,7.10
2019-04-19T14:12:49.242Z,8.33
2019-04-19T14:17:52.894Z,7.83
2019-04-19T14:22:57.278Z,7.03
2019-04-19T14:28:01.103Z,7.13
2019-04-19T14:33:06.222Z,7.03
2019-04-19T14:38:09.986Z,6.90
2019-04-19T14:43:14.519Z,8.23
2019-04-19T14:48:24.661Z,7.30
2019-04-19T14:53:24.360Z,6.10
2019-04-19T14:58:28.169Z,5.80
2019-04-19T15:03:32.770Z,7.07
2019-04-19T15:08:37.330Z,5.80
2019-04-19T15:13:41.272Z,5.97
2019-04-19T15:18:45.204Z,5.47
2019-04-19T15:23:50.135Z,4.40
2019-04-19T15:28:54.993Z,4.90
2019-04-19T15:34:00.702Z,5.57
2019-04-19T15:39:10.160Z,6.70
2019-04-19T15:44:16.888Z,5.50
2019-04-19T15:49:21.802Z,4.97
2019-04-19T15:54:25.929Z,6.63
2019-04-19T15:59:30.516Z,5.50
2019-04-19T16:04:39.907Z,5.30
2019-04-19T16:10:07.600Z,6.07
2019-04-19T16:15:09.153Z,5.43
2019-04-19T16:20:13.427Z,5.50
2019-04-19T16:25:17.452Z,6.30
2019-04-19T16:30:21.076Z,10.77
2019-04-19T16:35:24.674Z,6.43
2019-04-19T16:40:28.573Z,5.67
2019-04-19T16:45:32.341Z,5.90
2019-04-19T16:50:36.567Z,6.80
2019-04-19T16:55:41.412Z,5.03
2019-04-19T17:00:47.035Z,5.43
2019-04-19T17:05:53.573Z,6.43
2019-04-19T17:10:57.564Z,6.33
2019-04-19T17:16:18.067Z,5.13
2019-04-19T17:21:28.687Z,12.53
2019-04-19T17:26:33.179Z,7.40
2019-04-19T17:31:38.172Z,7.30
2019-04-19T17:37:02.258Z,4.80
2019-04-19T17:42:06.415Z,6.90
2019-04-19T17:47:11.688Z,6.40
2019-04-19T17:52:24.560Z,6.50
2019-04-19T17:57:21.152Z,5.07
2019-04-19T18:02:25.444Z,5.53
2019-04-19T18:07:35.455Z,6.87
2019-04-19T18:12:34.997Z,6.17
2019-04-19T18:17:39.708Z,6.07
2019-04-19T18:22:55.579Z,6.77
2019-04-19T18:27:51.724Z,17.13
2019-04-19T18:32:58.260Z,8.90
2019-04-19T18:38:03.138Z,11.47
2019-04-19T18:43:19.544Z,13.20
2019-04-19T18:48:13.447Z,11.17
2019-04-19T18:53:29.467Z,12.30
2019-04-19T18:58:28.216Z,7.73
2019-04-19T19:03:35.123Z,6.87
2019-04-19T19:08:41.103Z,13.40
2019-04-19T19:13:39.547Z,12.93
2019-04-19T19:18:50.195Z,8.43
2019-04-19T19:24:16.890Z,12.73
2019-04-19T19:28:56.062Z,6.93
2019-04-19T19:34:01.602Z,8.27
2019-04-19T19:39:14.862Z,12.33
2019-04-19T19:44:31.087Z,10.13
2019-04-19T19:49:40.662Z,8.90
2019-04-19T19:54:44.878Z,16.73
2019-04-19T19:59:38.831Z,10.07
2019-04-19T20:04:40.578Z,9.10
2019-04-19T20:09:44.679Z,7.80
2019-04-19T20:14:47.275Z,9.13
2019-04-19T20:19:52.436Z,14.03
2019-04-19T20:25:07.091Z,30.63
2019-04-19T20:30:03.879Z,9.90
2019-04-19T20:35:13.947Z,9.73
2019-04-19T20:40:17.732Z,8.20
2019-04-19T20:45:29.007Z,8.43
2019-04-19T20:50:37.315Z,7.87
2019-04-19T20:55:53.591Z,8.43
2019-04-19T21:00:38.803Z,6.30
2019-04-19T21:05:46.435Z,8.10
2019-04-19T21:10:57.094Z,7.97
2019-04-19T21:15:56.410Z,10.60
2019-04-19T21:21:03.817Z,8.60
2019-04-19T21:26:12.299Z,8.77
2019-04-19T21:31:12.418Z,8.40
2019-04-19T21:36:17.019Z,10.73
2019-04-19T21:41:27.846Z,7.90
2019-04-19T21:46:30.601Z,9.40
2019-04-19T21:51:35.930Z,7.53
2019-04-19T21:56:41.753Z,7.53
2019-04-19T22:01:47.625Z,7.50
2019-04-19T22:06:56.164Z,9.13
2019-04-19T22:11:54.642Z,9.13
2019-04-19T22:16:58.808Z,7.60
2019-04-19T22:22:02.682Z,7.87
2019-04-19T22:27:07.398Z,7.60
2019-04-19T22:32:15.250Z,12.90
2019-04-19T22:37:24.739Z,7.17
2019-04-19T22:42:22.452Z,10.40
2019-04-19T22:47:30.081Z,18.77
2019-04-19T22:52:32.533Z,10.30
2019-04-19T22:57:45.186Z,11.70
2019-04-19T23:02:56.849Z,13.00
2019-04-19T23:08:04.220Z,11.50
2019-04-19T23:13:11.380Z,11.07
2019-04-19T23:18:23.247Z,11.03
2019-04-19T23:23:30.667Z,12.27
2019-04-19T23:28:36.634Z,16.00
2019-04-19T23:33:36.904Z,10.40
2019-04-19T23:38:41.338Z,11.03
2019-04-19T23:44:12.337Z,13.10
2019-04-19T23:49:13.550Z,18.03
2019-04-19T23:54:20.589Z,12.60
2019-04-19T23:59:21.594Z,11.87
